Rio Blanco — D5BO9 — position and weather

sailwx.info

Track history (hours):
 
Tides and Currents Weather Stations Pressure Air Temp Water Temp Dewpoint Dewpoint Depression Visibility Wind Speed Wind Dir Waves Ship Positions

Rio Blanco

Last reported at 2017-Jun-24 16:42 UTC. Time now 2017-Jun-24 17:31 UTC.
Position N 40°40' E 014°45'.

Length 286 m; draft 10.2 m.

Type: Ship (hazmat cat A). MMSI: 636092395.

Date/timePositionNaut miles runAvg speedWind from/ knotsBaromVisibWave heightAir tempDewpointWater temp
2017-Jun-24 16:42N 40°40' E 014°45'1 4.1
2017-Jun-24 16:23N 40°39' E 014°44'1 0.5
2017-Jun-24 15:00N 40°39' E 014°44'0 0.0
2017-Jun-24 14:30N 40°39' E 014°44'0 0.0
2017-Jun-24 12:03N 40°39' E 014°44'0 0.1
2017-Jun-24 11:54N 40°39' E 014°44'0 0.2
2017-Jun-24 11:27N 40°39' E 014°44'0 0.2
2017-Jun-24 10:57N 40°39' E 014°44'45 9.0
2017-Jun-24 06:00N 39°54' E 014°48'6114.1 270 / 61018.010.8 26.020.125.0
2017-Jun-24 01:38N 38°59' E 015°22'315.4
2017-Jun-24 01:28N 38°56' E 015°24'715.3
2017-Jun-24 00:59N 38°50' E 015°27'815.4
2017-Jun-24 00:29N 38°42' E 015°31'715.4
2017-Jun-24 00:00N 38°35' E 015°34'61342.4
2017-Jun-24 00:00N 38°30' E 015°30'612.7 270 / 61018.610.8 24.620.326.0
2017-Jun-23 23:30N 38°28' E 015°38'815.4
2017-Jun-23 23:00N 38°21' E 015°41'612.6
2017-Jun-23 22:30N 38°15' E 015°40'612.9
2017-Jun-23 22:01N 38°09' E 015°37'4 8.7
2017-Jun-23 21:30N 38°05' E 015°36'917.6
2017-Jun-23 21:01N 37°56' E 015°36'1019.5
2017-Jun-23 20:30N 37°50' E 015°46'1220.8
2017-Jun-23 19:56N 37°45' E 015°60'920.8
2017-Jun-23 19:31N 37°42' E 016°10'1320.7
2017-Jun-23 18:52N 37°37' E 016°25'720.6
2017-Jun-23 18:30N 37°34' E 016°34'1020.7
2017-Jun-23 18:00N 37°30' E 016°46'1120.6
2017-Jun-23 17:30N 37°25' E 016°58'1020.6
2017-Jun-23 17:00N 37°21' E 017°10'1121.1
2017-Jun-23 16:30N 37°17' E 017°22'1221.3
2017-Jun-23 15:57N 37°13' E 017°35'1021.3
2017-Jun-23 15:30N 37°09' E 017°46'1121.2
2017-Jun-23 15:00N 37°04' E 017°59'1121.3
2017-Jun-23 14:29N 36°60' E 018°11'3821.0
2017-Jun-23 12:40N 36°45' E 018°55'321.0
2017-Jun-23 12:30N 36°43' E 018°59'1325.3
2017-Jun-23 12:00N 36°36' E 019°12'3319.6 290 / 81018.310.8 27.120.425.0
2017-Jun-23 11:59N 36°39' E 019°11'1021.1
2017-Jun-23 11:30N 36°35' E 019°23'1121.2
2017-Jun-23 11:00N 36°31' E 019°35'1121.3
2017-Jun-23 10:30N 36°27' E 019°48'1121.3
2017-Jun-23 09:58N 36°22' E 020°00'8421.2
2017-Jun-23 06:00N 35°48' E 021°36'3322.4 340 / 141015.710.8 27.023.325.0
2017-Jun-23 04:32N 35°36' E 022°13'222.0
2017-Jun-23 04:26N 35°35' E 022°15'1122.1
2017-Jun-23 03:57N 35°30' E 022°28'8621.7
2017-Jun-23 00:00N 35°00' E 024°06'26321.9 220 / 81014.710.8 24.320.624.0
2017-Jun-22 12:00N 33°00' E 028°48'197 3.8 290 / 151013.310.8 27.719.224.0
2017-Jun-20 08:27N 32°49' E 032°42'5321.5
2017-Jun-20 06:00N 33°36' E 033°12'   270 / 181008.310.8 28.018.123.0
2017-Jun-17 18:54N 34°42' E 035°04'812.3
2017-Jun-17 18:14N 34°34' E 035°06'512.0
2017-Jun-17 17:48N 34°29' E 035°07'611.9
2017-Jun-17 17:18N 34°23' E 035°08'311.8
2017-Jun-17 17:00N 34°19' E 035°09'1511.7
2017-Jun-17 15:43N 34°04' E 035°11'711.8
2017-Jun-17 15:07N 33°57' E 035°12'110.9
2017-Jun-17 14:59N 33°56' E 035°13'611.8
2017-Jun-17 14:30N 33°56' E 035°19'1110.9
2017-Jun-17 13:30N 33°55' E 035°33'0 0.0
2017-Jun-16 11:36N 33°55' E 035°32'0 1.8
2017-Jun-16 11:30N 33°55' E 035°32'1 0.7
2017-Jun-16 09:52N 33°56' E 035°32'0 0.6
2017-Jun-16 09:30N 33°57' E 035°32'1 2.1
2017-Jun-16 09:00N 33°57' E 035°33'2 2.9
2017-Jun-16 08:29N 33°58' E 035°35'0 0.0
2017-Jun-16 07:59N 33°58' E 035°35'0 0.0
2017-Jun-16 06:26N 33°58' E 035°35'0 0.0
2017-Jun-16 05:59N 33°58' E 035°35'0 0.0
2017-Jun-16 05:29N 33°58' E 035°35'0 0.0
2017-Jun-16 04:59N 33°58' E 035°35'0 0.0
2017-Jun-16 04:29N 33°58' E 035°35'0 0.0
2017-Jun-16 03:59N 33°58' E 035°35'0 0.0
2017-Jun-16 03:26N 33°58' E 035°35'0 0.0
2017-Jun-16 02:05N 33°58' E 035°35'0 0.1
2017-Jun-16 01:59N 33°58' E 035°35'0 0.1
2017-Jun-16 01:29N 33°58' E 035°34'0 0.1
2017-Jun-16 00:59N 33°58' E 035°34'0 0.0
2017-Jun-16 00:29N 33°58' E 035°34'0 0.0
2017-Jun-15 23:59N 33°58' E 035°34'0 0.0
2017-Jun-15 23:29N 33°58' E 035°34'0 0.0
2017-Jun-15 22:47N 33°58' E 035°34'0 0.1
2017-Jun-15 22:29N 33°58' E 035°34'0 0.0
2017-Jun-15 21:26N 33°58' E 035°34'0 0.0
2017-Jun-15 20:56N 33°58' E 035°34'0 0.0
2017-Jun-15 20:29N 33°58' E 035°34'0 0.0
2017-Jun-15 19:56N 33°58' E 035°34'0 0.0
2017-Jun-15 19:17N 33°58' E 035°34'0 0.0
2017-Jun-15 18:50N 33°58' E 035°34'0 0.1
2017-Jun-15 18:29N 33°58' E 035°34'0 0.0
2017-Jun-15 17:59N 33°58' E 035°34'0 0.0
2017-Jun-15 17:29N 33°58' E 035°34'  
Track history (hours):
 
Tides and Currents Weather Stations Pressure Air Temp Water Temp Dewpoint Dewpoint Depression Visibility Wind Speed Wind Dir Waves Ship Positions

Rio Blanco

Last reported at 2017-Jun-24 16:42 UTC. Time now 2017-Jun-24 17:31 UTC.
Position N 40°40' E 014°45'.

Length 286 m; draft 10.2 m.

Type: Ship (hazmat cat A). MMSI: 636092395.

Date/timePositionNaut miles runAvg speedWind from/ knotsBaromVisibWave heightAir tempDewpointWater temp
2017-Jun-24 16:42N 40°40' E 014°45'1 4.1
2017-Jun-24 16:23N 40°39' E 014°44'1 0.5
2017-Jun-24 15:00N 40°39' E 014°44'0 0.0
2017-Jun-24 14:30N 40°39' E 014°44'0 0.0
2017-Jun-24 12:03N 40°39' E 014°44'0 0.1
2017-Jun-24 11:54N 40°39' E 014°44'0 0.2
2017-Jun-24 11:27N 40°39' E 014°44'0 0.2
2017-Jun-24 10:57N 40°39' E 014°44'45 9.0
2017-Jun-24 06:00N 39°54' E 014°48'6114.1 270 / 61018.010.8 26.020.125.0
2017-Jun-24 01:38N 38°59' E 015°22'315.4
2017-Jun-24 01:28N 38°56' E 015°24'715.3
2017-Jun-24 00:59N 38°50' E 015°27'815.4
2017-Jun-24 00:29N 38°42' E 015°31'715.4
2017-Jun-24 00:00N 38°35' E 015°34'61342.4
2017-Jun-24 00:00N 38°30' E 015°30'612.7 270 / 61018.610.8 24.620.326.0
2017-Jun-23 23:30N 38°28' E 015°38'815.4
2017-Jun-23 23:00N 38°21' E 015°41'612.6
2017-Jun-23 22:30N 38°15' E 015°40'612.9
2017-Jun-23 22:01N 38°09' E 015°37'4 8.7
2017-Jun-23 21:30N 38°05' E 015°36'917.6
2017-Jun-23 21:01N 37°56' E 015°36'1019.5
2017-Jun-23 20:30N 37°50' E 015°46'1220.8
2017-Jun-23 19:56N 37°45' E 015°60'920.8
2017-Jun-23 19:31N 37°42' E 016°10'1320.7
2017-Jun-23 18:52N 37°37' E 016°25'720.6
2017-Jun-23 18:30N 37°34' E 016°34'1020.7
2017-Jun-23 18:00N 37°30' E 016°46'1120.6
2017-Jun-23 17:30N 37°25' E 016°58'1020.6
2017-Jun-23 17:00N 37°21' E 017°10'1121.1
2017-Jun-23 16:30N 37°17' E 017°22'1221.3
2017-Jun-23 15:57N 37°13' E 017°35'1021.3
2017-Jun-23 15:30N 37°09' E 017°46'1121.2
2017-Jun-23 15:00N 37°04' E 017°59'1121.3
2017-Jun-23 14:29N 36°60' E 018°11'3821.0
2017-Jun-23 12:40N 36°45' E 018°55'321.0
2017-Jun-23 12:30N 36°43' E 018°59'1325.3
2017-Jun-23 12:00N 36°36' E 019°12'3319.6 290 / 81018.310.8 27.120.425.0
2017-Jun-23 11:59N 36°39' E 019°11'1021.1
2017-Jun-23 11:30N 36°35' E 019°23'1121.2
2017-Jun-23 11:00N 36°31' E 019°35'1121.3
2017-Jun-23 10:30N 36°27' E 019°48'1121.3
2017-Jun-23 09:58N 36°22' E 020°00'8421.2
2017-Jun-23 06:00N 35°48' E 021°36'3322.4 340 / 141015.710.8 27.023.325.0
2017-Jun-23 04:32N 35°36' E 022°13'222.0
2017-Jun-23 04:26N 35°35' E 022°15'1122.1
2017-Jun-23 03:57N 35°30' E 022°28'8621.7
2017-Jun-23 00:00N 35°00' E 024°06'26321.9 220 / 81014.710.8 24.320.624.0
2017-Jun-22 12:00N 33°00' E 028°48'197 3.8 290 / 151013.310.8 27.719.224.0
2017-Jun-20 08:27N 32°49' E 032°42'5321.5
2017-Jun-20 06:00N 33°36' E 033°12'   270 / 181008.310.8 28.018.123.0
2017-Jun-17 18:54N 34°42' E 035°04'812.3
2017-Jun-17 18:14N 34°34' E 035°06'512.0
2017-Jun-17 17:48N 34°29' E 035°07'611.9
2017-Jun-17 17:18N 34°23' E 035°08'311.8
2017-Jun-17 17:00N 34°19' E 035°09'1511.7
2017-Jun-17 15:43N 34°04' E 035°11'711.8
2017-Jun-17 15:07N 33°57' E 035°12'110.9
2017-Jun-17 14:59N 33°56' E 035°13'611.8
2017-Jun-17 14:30N 33°56' E 035°19'1110.9
2017-Jun-17 13:30N 33°55' E 035°33'0 0.0
2017-Jun-16 11:36N 33°55' E 035°32'0 1.8
2017-Jun-16 11:30N 33°55' E 035°32'1 0.7
2017-Jun-16 09:52N 33°56' E 035°32'0 0.6
2017-Jun-16 09:30N 33°57' E 035°32'1 2.1
2017-Jun-16 09:00N 33°57' E 035°33'2 2.9
2017-Jun-16 08:29N 33°58' E 035°35'0 0.0
2017-Jun-16 07:59N 33°58' E 035°35'0 0.0
2017-Jun-16 06:26N 33°58' E 035°35'0 0.0
2017-Jun-16 05:59N 33°58' E 035°35'0 0.0
2017-Jun-16 05:29N 33°58' E 035°35'0 0.0
2017-Jun-16 04:59N 33°58' E 035°35'0 0.0
2017-Jun-16 04:29N 33°58' E 035°35'0 0.0
2017-Jun-16 03:59N 33°58' E 035°35'0 0.0
2017-Jun-16 03:26N 33°58' E 035°35'0 0.0
2017-Jun-16 02:05N 33°58' E 035°35'0 0.1
2017-Jun-16 01:59N 33°58' E 035°35'0 0.1
2017-Jun-16 01:29N 33°58' E 035°34'0 0.1
2017-Jun-16 00:59N 33°58' E 035°34'0 0.0
2017-Jun-16 00:29N 33°58' E 035°34'0 0.0
2017-Jun-15 23:59N 33°58' E 035°34'0 0.0
2017-Jun-15 23:29N 33°58' E 035°34'0 0.0
2017-Jun-15 22:47N 33°58' E 035°34'0 0.1
2017-Jun-15 22:29N 33°58' E 035°34'0 0.0
2017-Jun-15 21:26N 33°58' E 035°34'0 0.0
2017-Jun-15 20:56N 33°58' E 035°34'0 0.0
2017-Jun-15 20:29N 33°58' E 035°34'0 0.0
2017-Jun-15 19:56N 33°58' E 035°34'0 0.0
2017-Jun-15 19:17N 33°58' E 035°34'0 0.0
2017-Jun-15 18:50N 33°58' E 035°34'0 0.1
2017-Jun-15 18:29N 33°58' E 035°34'0 0.0
2017-Jun-15 17:59N 33°58' E 035°34'0 0.0
2017-Jun-15 17:29N 33°58' E 035°34'  

Dump ship's entire track history